マドリード/バラハス の空港の天気 - METARとTAF

マドリード・バラハス国際空港 ( LEMD / MAD ) - スペイン マドリード
飛行場実況気象(Metar)
観測時間05/28 16:30 CEST (05/28 14:30 UTC)
風向・風速南南東 3m/s
視程10km以上
天気現象
なし
気温29℃
湿度23%
気圧1021hPa
METARLEMD 281430Z 16005KT CAVOK 29/06 Q1021 NOSIG
過去の天気等 Google飛行場航空写真 Wunderground天気予報

過去48時間のMETAR

飛行場予報(TAF)
発表時間: 5/28 13:00 CEST (5/28 11:00 UTC)
予報対象時間: 28日14時 CEST ~ 29日20時 CEST
風向・風速南東 4m/s
視程10km以上
なし
29日4時 CEST ~ 29日11時 CEST に一時的に
風向・風速不定 2m/s
TAF LEMD 281100Z 2812/2918 13007KT CAVOK TX30/2816Z TN13/2906Z
TEMPO 2902/2909 VRB04KT